createdAt,value
2022-08-22T00:00:15.293Z,13.05
2022-08-22T00:02:45.443Z,11.57
2022-08-22T00:02:55.205Z,10.90
2022-08-22T00:05:54.753Z,12.77
2022-08-22T00:08:40.765Z,14.23
2022-08-22T00:11:27.990Z,11.95
2022-08-22T00:14:13.981Z,14.43
2022-08-22T00:17:05.294Z,14.52
2022-08-22T00:19:52.844Z,12.55
2022-08-22T00:22:39.242Z,14.27
2022-08-22T00:25:24.539Z,14.93
2022-08-22T00:28:12.180Z,15.05
2022-08-22T00:30:52.201Z,16.45
2022-08-22T00:33:33.044Z,16.17
2022-08-22T00:36:19.074Z,17.52
2022-08-22T00:39:20.706Z,15.93
2022-08-22T00:41:50.510Z,17.33
2022-08-22T00:44:31.317Z,18.20
2022-08-22T00:47:11.209Z,18.02
2022-08-22T00:49:49.714Z,18.17
2022-08-22T00:52:57.421Z,15.98
2022-08-22T00:55:43.634Z,17.95
2022-08-22T00:58:35.034Z,15.65
2022-08-22T01:01:11.560Z,17.90
2022-08-22T01:03:52.597Z,17.33
2022-08-22T01:06:43.373Z,15.93
2022-08-22T01:09:45.396Z,17.23
2022-08-22T01:12:41.992Z,16.73
2022-08-22T01:15:15.494Z,16.73
2022-08-22T01:17:59.497Z,17.35
2022-08-22T01:21:03.977Z,17.20
2022-08-22T01:23:31.068Z,16.85
2022-08-22T01:26:20.978Z,16.83
2022-08-22T01:29:28.519Z,18.58
2022-08-22T01:32:31.107Z,16.25
2022-08-22T01:35:26.861Z,17.40
2022-08-22T01:38:42.864Z,16.92
2022-08-22T01:41:24.669Z,17.63
2022-08-22T01:44:35.197Z,15.00
2022-08-22T01:47:04.659Z,14.77
2022-08-22T01:49:34.575Z,15.57
2022-08-22T01:52:14.581Z,14.77
2022-08-22T01:54:58.867Z,15.45
2022-08-22T01:57:27.163Z,15.10
2022-08-22T02:00:00.585Z,14.75
2022-08-22T02:02:39.539Z,14.93
2022-08-22T02:05:23.715Z,14.15
2022-08-22T02:08:05.218Z,14.05
2022-08-22T02:10:52.502Z,14.43
2022-08-22T02:13:46.081Z,13.55
2022-08-22T02:16:23.801Z,14.73
2022-08-22T02:19:04.160Z,14.52
2022-08-22T02:21:44.004Z,15.38
2022-08-22T02:24:29.610Z,14.98
2022-08-22T02:27:25.521Z,12.70
2022-08-22T02:30:23.406Z,14.68
2022-08-22T02:35:33.927Z,14.07
2022-08-22T02:38:14.759Z,12.65
2022-08-22T02:41:02.029Z,12.48
2022-08-22T02:43:59.521Z,13.55
2022-08-22T02:46:55.364Z,13.25
2022-08-22T02:49:33.278Z,14.13
2022-08-22T02:52:16.403Z,13.77
2022-08-22T02:54:51.409Z,13.98
2022-08-22T02:57:39.581Z,12.77
2022-08-22T03:00:43.186Z,13.40
2022-08-22T03:03:21.731Z,13.77
2022-08-22T03:06:01.327Z,13.35
2022-08-22T03:08:37.910Z,12.15
2022-08-22T03:11:32.064Z,12.15
2022-08-22T03:14:14.358Z,12.88
2022-08-22T03:17:02.850Z,13.10
2022-08-22T03:20:00.329Z,11.70
2022-08-22T03:22:36.345Z,13.30
2022-08-22T03:25:12.944Z,11.98
2022-08-22T03:28:03.433Z,11.40
2022-08-22T03:30:58.531Z,12.00
2022-08-22T03:33:31.225Z,12.35
2022-08-22T03:36:19.633Z,11.88
2022-08-22T03:38:54.683Z,12.32
2022-08-22T03:41:57.350Z,11.90
2022-08-22T03:44:51.353Z,12.45
2022-08-22T03:47:28.168Z,9.98
2022-08-22T03:50:26.231Z,11.20
2022-08-22T03:53:19.470Z,10.43
2022-08-22T03:55:49.213Z,11.00
2022-08-22T03:58:47.762Z,10.00
2022-08-22T04:01:36.550Z,10.18
2022-08-22T04:04:34.490Z,10.68
2022-08-22T04:07:40.158Z,10.23
2022-08-22T04:10:52.430Z,9.90
2022-08-22T04:13:27.757Z,9.48
2022-08-22T04:16:16.369Z,10.68
2022-08-22T04:19:01.839Z,10.50
2022-08-22T04:21:37.046Z,10.02
2022-08-22T04:24:24.202Z,10.88
2022-08-22T04:27:15.445Z,10.88
2022-08-22T04:29:54.662Z,9.93
2022-08-22T04:32:42.614Z,9.98
2022-08-22T04:35:29.496Z,8.80
2022-08-22T04:38:12.052Z,9.68
2022-08-22T04:40:52.715Z,9.85
2022-08-22T04:43:53.095Z,9.35
2022-08-22T04:46:36.587Z,9.40
2022-08-22T04:49:59.770Z,9.70
2022-08-22T04:53:06.421Z,8.75
2022-08-22T04:55:47.662Z,8.38
2022-08-22T04:58:38.699Z,9.38
2022-08-22T05:01:49.286Z,8.23
2022-08-22T05:04:23.780Z,9.23
2022-08-22T05:07:23.737Z,8.85
2022-08-22T05:10:00.886Z,9.70
2022-08-22T05:12:47.725Z,8.85
2022-08-22T05:15:24.637Z,8.65
2022-08-22T05:18:08.645Z,8.05
2022-08-22T05:20:40.465Z,8.68
2022-08-22T05:23:24.449Z,9.00
2022-08-22T05:25:59.547Z,7.13
2022-08-22T05:28:48.289Z,8.50
2022-08-22T05:31:27.542Z,9.15
2022-08-22T05:34:08.250Z,8.27
2022-08-22T05:36:43.411Z,9.30
2022-08-22T05:39:18.646Z,10.57
2022-08-22T05:41:50.325Z,8.80
2022-08-22T05:44:34.210Z,10.70
2022-08-22T05:47:21.320Z,9.63
2022-08-22T05:50:00.066Z,9.88
2022-08-22T05:52:38.165Z,9.27
2022-08-22T05:55:17.969Z,10.27
2022-08-22T05:57:52.866Z,11.02
2022-08-22T06:00:27.983Z,10.85
2022-08-22T06:03:06.328Z,10.52
2022-08-22T06:05:39.746Z,11.07
2022-08-22T06:08:27.192Z,10.20
2022-08-22T06:11:03.058Z,9.50
2022-08-22T06:13:36.042Z,10.73
2022-08-22T06:16:37.077Z,10.18
2022-08-22T06:19:19.426Z,11.32
2022-08-22T06:21:51.141Z,9.48
2022-08-22T06:24:27.717Z,10.52
2022-08-22T06:27:04.027Z,11.02
2022-08-22T06:29:40.622Z,10.18
2022-08-22T06:32:53.786Z,9.35
2022-08-22T06:35:19.998Z,9.63
2022-08-22T06:37:57.383Z,9.13
2022-08-22T06:40:29.429Z,9.55
2022-08-22T06:43:00.309Z,9.40
2022-08-22T06:45:30.870Z,8.90
2022-08-22T06:48:06.527Z,8.95
2022-08-22T06:50:41.976Z,10.00
2022-08-22T06:53:33.870Z,7.95
2022-08-22T06:56:05.399Z,7.90
2022-08-22T06:58:38.797Z,7.05
2022-08-22T07:01:12.349Z,7.03
2022-08-22T07:03:46.409Z,8.00
2022-08-22T07:06:28.726Z,8.27
2022-08-22T07:09:05.743Z,8.02
2022-08-22T07:11:44.645Z,7.93
2022-08-22T07:14:26.006Z,8.68
2022-08-22T07:17:01.625Z,7.30
2022-08-22T07:20:06.581Z,6.93
2022-08-22T07:22:38.009Z,7.78
2022-08-22T07:25:14.845Z,8.35
2022-08-22T07:28:00.317Z,6.50
2022-08-22T07:30:55.549Z,8.27
2022-08-22T07:33:34.094Z,8.55
2022-08-22T07:36:08.355Z,6.82
2022-08-22T07:38:46.866Z,7.68
2022-08-22T07:41:26.854Z,8.05
2022-08-22T07:44:16.285Z,7.75
2022-08-22T07:46:56.005Z,7.43
2022-08-22T07:49:35.517Z,6.65
2022-08-22T07:52:11.357Z,6.47
2022-08-22T07:54:45.101Z,6.93
2022-08-22T07:57:26.443Z,6.57
2022-08-22T07:59:57.201Z,7.15
2022-08-22T08:02:27.668Z,6.72
2022-08-22T08:04:57.787Z,5.63
2022-08-22T08:07:32.167Z,6.65
2022-08-22T08:10:13.104Z,6.53
2022-08-22T08:12:52.800Z,6.03
2022-08-22T08:15:39.973Z,6.90
2022-08-22T08:18:13.249Z,6.15
2022-08-22T08:20:43.878Z,6.72
2022-08-22T08:23:23.478Z,6.65
2022-08-22T08:26:10.394Z,6.68
2022-08-22T08:28:58.476Z,8.27
2022-08-22T08:31:38.154Z,8.23
2022-08-22T08:34:20.169Z,6.65
2022-08-22T08:36:55.618Z,6.88
2022-08-22T08:39:50.618Z,8.75
2022-08-22T08:43:06.007Z,6.95
2022-08-22T08:46:11.362Z,5.75
2022-08-22T08:49:09.925Z,6.53
2022-08-22T08:51:45.438Z,6.53
2022-08-22T08:54:43.495Z,6.30
2022-08-22T08:57:19.843Z,6.68
2022-08-22T09:00:32.749Z,6.28
2022-08-22T09:03:15.435Z,5.72
2022-08-22T09:06:18.554Z,5.60
2022-08-22T09:09:17.322Z,6.17
2022-08-22T09:12:24.346Z,6.18
2022-08-22T09:15:18.548Z,6.40
2022-08-22T09:18:06.654Z,6.40
2022-08-22T09:21:30.477Z,5.63
2022-08-22T09:24:34.425Z,7.00
2022-08-22T09:27:14.115Z,6.70
2022-08-22T09:30:27.784Z,6.43
2022-08-22T09:33:14.991Z,6.20
2022-08-22T09:36:05.609Z,6.30
2022-08-22T09:39:00.417Z,6.88
2022-08-22T09:41:45.081Z,5.63
2022-08-22T09:44:20.326Z,6.88
2022-08-22T09:46:57.939Z,5.95
2022-08-22T09:49:58.510Z,6.43
2022-08-22T09:52:43.617Z,5.70
2022-08-22T09:55:42.930Z,5.78
2022-08-22T09:58:41.790Z,5.82
2022-08-22T10:01:32.875Z,6.55
2022-08-22T10:04:42.030Z,6.70
2022-08-22T10:07:32.514Z,6.45
2022-08-22T10:10:21.267Z,6.05
2022-08-22T10:13:11.818Z,6.38
2022-08-22T10:15:57.092Z,6.35
2022-08-22T10:18:28.029Z,6.38
2022-08-22T10:21:22.185Z,6.25
2022-08-22T10:23:57.636Z,5.65
2022-08-22T10:26:38.599Z,6.22
2022-08-22T10:29:38.981Z,5.78
2022-08-22T10:32:10.769Z,6.43
2022-08-22T10:34:51.980Z,5.80
2022-08-22T10:38:01.699Z,6.40
2022-08-22T10:40:49.958Z,6.93
2022-08-22T10:43:20.039Z,6.25
2022-08-22T10:46:00.671Z,7.07
2022-08-22T10:49:00.650Z,5.95
2022-08-22T10:51:49.725Z,6.35
2022-08-22T10:54:57.890Z,6.40
2022-08-22T10:57:55.568Z,6.03
2022-08-22T11:00:46.069Z,6.50
2022-08-22T11:03:25.513Z,9.13
2022-08-22T11:06:01.391Z,11.07
2022-08-22T11:08:49.624Z,7.82
2022-08-22T11:11:41.606Z,6.22
2022-08-22T11:14:48.354Z,6.47
2022-08-22T11:17:34.612Z,7.05
2022-08-22T11:20:15.910Z,6.13
2022-08-22T11:23:22.582Z,6.15
2022-08-22T11:26:33.509Z,6.57
2022-08-22T11:29:24.389Z,5.93
2022-08-22T11:32:20.076Z,6.30
2022-08-22T11:34:58.181Z,7.28
2022-08-22T11:37:46.055Z,6.13
2022-08-22T11:40:35.802Z,6.53
2022-08-22T11:43:06.168Z,5.70
2022-08-22T11:45:47.701Z,6.40
2022-08-22T11:48:30.009Z,6.35
2022-08-22T11:51:13.409Z,7.40
2022-08-22T11:53:57.119Z,6.45
2022-08-22T11:56:41.681Z,6.95
2022-08-22T11:59:22.761Z,6.22
2022-08-22T12:02:03.955Z,8.07
2022-08-22T12:04:44.249Z,7.22
2022-08-22T12:07:26.299Z,6.75
2022-08-22T12:10:04.872Z,7.75
2022-08-22T12:13:01.268Z,6.90
2022-08-22T12:15:39.071Z,6.28
2022-08-22T12:18:10.499Z,7.30
2022-08-22T12:21:25.838Z,6.47
2022-08-22T12:24:32.121Z,6.47
2022-08-22T12:27:18.483Z,5.93
2022-08-22T12:30:05.961Z,6.45
2022-08-22T12:33:04.808Z,6.30
2022-08-22T12:35:57.123Z,6.63
2022-08-22T12:41:40.146Z,6.68
2022-08-22T12:44:36.650Z,6.18
2022-08-22T12:47:32.186Z,6.05
2022-08-22T12:50:28.181Z,6.97
2022-08-22T12:53:25.366Z,6.60
2022-08-22T12:56:13.281Z,6.43
2022-08-22T12:58:59.731Z,6.50
2022-08-22T13:01:34.507Z,6.60
2022-08-22T13:04:32.549Z,5.28
2022-08-22T13:07:28.788Z,5.32
2022-08-22T13:10:17.583Z,5.97
2022-08-22T13:12:52.410Z,5.93
2022-08-22T13:15:36.049Z,5.70
2022-08-22T13:18:30.496Z,6.32
2022-08-22T13:21:14.345Z,5.53
2022-08-22T13:23:45.854Z,5.90
2022-08-22T13:26:34.557Z,5.82
2022-08-22T13:29:27.514Z,6.72
2022-08-22T13:32:32.874Z,4.45
2022-08-22T13:35:03.434Z,5.72
2022-08-22T13:37:40.038Z,5.78
2022-08-22T13:40:21.554Z,5.53
2022-08-22T13:45:29.873Z,6.38
2022-08-22T13:48:03.264Z,6.00
2022-08-22T13:51:00.560Z,5.60
2022-08-22T13:53:36.891Z,5.68
2022-08-22T13:56:19.518Z,7.13
2022-08-22T13:58:57.204Z,6.07
2022-08-22T14:01:43.344Z,6.38
2022-08-22T14:04:33.433Z,5.20
2022-08-22T14:07:06.263Z,5.63
2022-08-22T14:10:02.606Z,5.90
2022-08-22T14:12:50.087Z,5.80
2022-08-22T14:15:45.417Z,5.25
2022-08-22T14:18:30.262Z,5.78
2022-08-22T14:21:40.927Z,5.50
2022-08-22T14:24:16.934Z,6.00
2022-08-22T14:27:11.306Z,5.97
2022-08-22T14:29:50.831Z,6.85
2022-08-22T14:32:26.704Z,5.60
2022-08-22T14:35:35.383Z,6.18
2022-08-22T14:38:29.843Z,5.13
2022-08-22T14:41:28.452Z,5.05
2022-08-22T14:44:45.978Z,5.45
2022-08-22T14:47:55.333Z,5.65
2022-08-22T14:50:43.141Z,5.80
2022-08-22T14:53:25.340Z,6.25
2022-08-22T14:56:05.430Z,6.15
2022-08-22T14:58:49.085Z,6.30
2022-08-22T15:01:25.048Z,6.03
2022-08-22T15:04:14.597Z,6.07
2022-08-22T15:06:57.881Z,5.95
2022-08-22T15:09:36.735Z,6.10
2022-08-22T15:12:38.419Z,6.32
2022-08-22T15:15:31.168Z,5.30
2022-08-22T15:17:59.567Z,6.00
2022-08-22T15:20:45.531Z,5.07
2022-08-22T15:23:22.977Z,5.22
2022-08-22T15:26:22.591Z,5.55
2022-08-22T15:31:40.689Z,4.70
2022-08-22T15:34:40.780Z,4.90
2022-08-22T15:37:21.688Z,5.00
2022-08-22T15:40:12.753Z,5.30
2022-08-22T15:42:48.642Z,5.13
2022-08-22T15:45:36.652Z,5.50
2022-08-22T15:48:24.912Z,6.03
2022-08-22T15:51:04.853Z,4.85
2022-08-22T15:53:44.463Z,5.97
2022-08-22T15:56:12.057Z,5.33
2022-08-22T15:58:48.804Z,5.82
2022-08-22T16:01:28.585Z,5.68
2022-08-22T16:04:06.138Z,5.72
2022-08-22T16:06:53.989Z,5.70
2022-08-22T16:09:46.207Z,5.28
2022-08-22T16:12:37.186Z,5.10
2022-08-22T16:15:26.734Z,4.78
2022-08-22T16:17:56.424Z,4.45
2022-08-22T16:20:26.147Z,5.55
2022-08-22T16:22:58.420Z,5.60
2022-08-22T16:25:47.426Z,6.00
2022-08-22T16:28:54.340Z,5.50
2022-08-22T16:31:37.183Z,5.25
2022-08-22T16:34:18.979Z,5.40
2022-08-22T16:36:57.405Z,5.28
2022-08-22T16:39:24.525Z,5.25
2022-08-22T16:41:56.312Z,5.85
2022-08-22T16:47:11.058Z,6.00
2022-08-22T16:50:02.530Z,5.70
2022-08-22T16:55:05.958Z,5.55
2022-08-22T16:58:09.808Z,4.90
2022-08-22T17:00:57.841Z,6.38
2022-08-22T17:03:28.527Z,5.57
2022-08-22T17:06:34.365Z,5.53
2022-08-22T17:09:12.981Z,5.93
2022-08-22T17:12:03.390Z,5.72
2022-08-22T17:14:45.108Z,6.05
2022-08-22T17:17:24.214Z,6.63
2022-08-22T17:20:15.205Z,7.13
2022-08-22T17:22:59.967Z,6.28
2022-08-22T17:25:50.233Z,5.90
2022-08-22T17:28:37.207Z,6.03
2022-08-22T17:31:43.156Z,5.85
2022-08-22T17:34:33.354Z,7.10
2022-08-22T17:37:28.075Z,6.07
2022-08-22T17:40:23.908Z,6.43
2022-08-22T17:42:59.393Z,6.45
2022-08-22T17:45:38.532Z,5.97
2022-08-22T17:48:17.962Z,7.03
2022-08-22T17:50:52.132Z,5.72
2022-08-22T17:53:40.812Z,6.03
2022-08-22T17:56:41.515Z,5.35
2022-08-22T17:59:31.021Z,6.05
2022-08-22T18:02:09.747Z,6.22
2022-08-22T18:05:09.545Z,6.75
2022-08-22T18:07:45.062Z,7.38
2022-08-22T18:10:22.294Z,6.78
2022-08-22T18:13:08.436Z,6.32
2022-08-22T18:15:58.726Z,6.45
2022-08-22T18:18:33.309Z,6.63
2022-08-22T18:21:33.586Z,6.38
2022-08-22T18:24:22.691Z,6.38
2022-08-22T18:27:05.962Z,5.60
2022-08-22T18:29:51.614Z,7.00
2022-08-22T18:32:59.833Z,6.28
2022-08-22T18:35:53.868Z,7.00
2022-08-22T18:38:59.581Z,7.47
2022-08-22T18:41:38.772Z,5.93
2022-08-22T18:44:28.396Z,7.10
2022-08-22T18:47:12.148Z,7.30
2022-08-22T18:49:54.369Z,7.35
2022-08-22T18:52:26.905Z,8.95
2022-08-22T18:55:27.227Z,7.50
2022-08-22T18:58:05.688Z,7.78
2022-08-22T19:01:42.804Z,7.95
2022-08-22T19:04:51.413Z,7.80
2022-08-22T19:07:45.479Z,7.40
2022-08-22T19:10:28.314Z,6.67
2022-08-22T19:13:17.875Z,8.45
2022-08-22T19:15:50.387Z,8.18
2022-08-22T19:18:40.233Z,8.10
2022-08-22T19:21:43.419Z,7.85
2022-08-22T19:24:19.299Z,7.72
2022-08-22T19:27:25.677Z,7.60
2022-08-22T19:30:08.212Z,7.15
2022-08-22T19:32:44.467Z,7.55
2022-08-22T19:35:26.158Z,8.35
2022-08-22T19:38:00.679Z,7.50
2022-08-22T19:40:58.613Z,7.20
2022-08-22T19:43:38.926Z,7.78
2022-08-22T19:46:13.058Z,7.95
2022-08-22T19:48:47.202Z,8.20
2022-08-22T19:51:30.955Z,7.55
2022-08-22T19:54:23.074Z,7.88
2022-08-22T19:57:10.284Z,7.70
2022-08-22T19:59:53.034Z,7.22
2022-08-22T20:02:23.295Z,7.22
2022-08-22T20:05:15.205Z,7.00
2022-08-22T20:07:57.485Z,8.57
2022-08-22T20:10:56.250Z,7.72
2022-08-22T20:13:31.399Z,7.88
2022-08-22T20:16:18.675Z,8.38
2022-08-22T20:19:02.010Z,8.20
2022-08-22T20:21:44.481Z,6.97
2022-08-22T20:24:21.886Z,6.80
2022-08-22T20:27:14.332Z,7.68
2022-08-22T20:29:53.015Z,7.05
2022-08-22T20:32:26.607Z,7.15
2022-08-22T20:35:00.879Z,6.85
2022-08-22T20:38:04.792Z,6.80
2022-08-22T20:40:57.379Z,6.72
2022-08-22T20:46:26.302Z,6.60
2022-08-22T20:48:55.965Z,6.50
2022-08-22T20:51:31.465Z,6.63
2022-08-22T20:54:10.432Z,7.57
2022-08-22T20:56:54.440Z,6.97
2022-08-22T20:59:27.817Z,6.93
2022-08-22T21:02:21.404Z,6.95
2022-08-22T21:05:04.650Z,8.10
2022-08-22T21:07:37.299Z,6.68
2022-08-22T21:10:33.691Z,7.30
2022-08-22T21:13:22.132Z,6.53
2022-08-22T21:15:51.428Z,6.95
2022-08-22T21:20:57.124Z,7.40
2022-08-22T21:23:24.625Z,7.72
2022-08-22T21:25:54.588Z,7.20
2022-08-22T21:28:44.046Z,9.45
2022-08-22T21:31:20.498Z,8.70
2022-08-22T21:33:53.470Z,7.50
2022-08-22T21:36:28.467Z,7.72
2022-08-22T21:39:05.835Z,8.25
2022-08-22T21:42:10.782Z,7.35
2022-08-22T21:44:54.269Z,9.25
2022-08-22T21:47:32.786Z,6.78
2022-08-22T21:50:23.137Z,7.55
2022-08-22T21:52:58.431Z,8.25
2022-08-22T21:55:27.119Z,7.00
2022-08-22T21:58:09.421Z,6.93
2022-08-22T22:00:49.481Z,7.00
2022-08-22T22:03:21.440Z,7.93
2022-08-22T22:05:54.809Z,6.95
2022-08-22T22:08:22.119Z,7.85
2022-08-22T22:10:53.230Z,6.82
2022-08-22T22:13:23.889Z,7.55
2022-08-22T22:15:58.131Z,7.38
2022-08-22T22:18:32.437Z,6.65
2022-08-22T22:21:00.332Z,8.35
2022-08-22T22:23:32.345Z,5.72
2022-08-22T22:26:05.803Z,8.00
2022-08-22T22:28:38.109Z,5.88
2022-08-22T22:31:08.156Z,6.38
2022-08-22T22:33:38.356Z,6.07
2022-08-22T22:36:24.101Z,6.47
2022-08-22T22:38:55.059Z,7.57
2022-08-22T22:41:25.860Z,5.90
2022-08-22T22:43:54.009Z,6.63
2022-08-22T22:46:22.390Z,6.35
2022-08-22T22:48:51.830Z,6.78
2022-08-22T22:51:26.598Z,6.60
2022-08-22T22:53:56.845Z,6.28
2022-08-22T22:56:26.539Z,6.07
2022-08-22T22:59:10.704Z,6.32
2022-08-22T23:02:04.900Z,6.30
2022-08-22T23:04:39.417Z,6.60
2022-08-22T23:07:11.010Z,6.05
2022-08-22T23:09:46.646Z,5.75
2022-08-22T23:12:14.936Z,6.03
2022-08-22T23:14:46.770Z,5.40
2022-08-22T23:17:15.198Z,7.95
2022-08-22T23:19:46.235Z,6.40
2022-08-22T23:22:17.697Z,6.70
2022-08-22T23:24:44.819Z,5.53
2022-08-22T23:27:14.429Z,6.57
2022-08-22T23:29:44.337Z,4.95
2022-08-22T23:32:14.203Z,5.90
2022-08-22T23:34:48.677Z,5.35
2022-08-22T23:37:20.000Z,6.82
2022-08-22T23:39:50.166Z,6.70
2022-08-22T23:42:20.588Z,5.63
2022-08-22T23:44:50.086Z,7.32
2022-08-22T23:47:22.098Z,5.07
2022-08-22T23:49:49.461Z,5.15
2022-08-22T23:52:18.897Z,5.72
2022-08-22T23:54:46.166Z,5.63
2022-08-22T23:57:14.385Z,5.30
2022-08-22T23:59:47.776Z,5.57
